Time;durP1;ratioP1;P1;durP2;ratioP2;P2;SDS_P1;SDS_P2;PMS_P1;PMS_P2;Temp;Humidity;BMP_temperature;BMP_pressure;BME280_temperature;BME280_humidity;BME280_pressure;Samples;Min_cycle;Max_cycle;Signal;HPM_P1;HPM_P2
2021/05/19 00:01:47;;;;;;;2.37;1.80;;;8.20;99.90;;;8.80;100.00;98144.16;5052930;28;20445;-80
2021/05/19 00:04:16;;;;;;;2.50;1.80;;;7.80;99.90;;;8.85;100.00;98141.03;5056763;28;20439;-80
2021/05/19 00:06:48;;;;;;;2.93;2.13;;;7.90;99.90;;;8.99;100.00;98135.06;5061121;28;20460;-80
2021/05/19 00:09:16;;;;;;;6.37;1.90;;;8.10;99.90;;;9.06;100.00;98143.78;5059500;28;20464;-80
2021/05/19 00:11:46;;;;;;;2.20;2.00;;;8.30;99.90;;;9.04;100.00;98146.59;5068109;28;20468;-80
2021/05/19 00:14:17;;;;;;;6.00;2.10;;;8.20;99.90;;;8.86;100.00;98137.44;5067087;28;20460;-84
2021/05/19 00:16:49;;;;;;;1.30;1.20;;;8.00;99.90;;;8.77;100.00;98138.47;5067249;28;20452;-80
2021/05/19 00:19:18;;;;;;;3.47;1.93;;;7.80;99.90;;;8.71;100.00;98139.19;5067595;28;20459;-80
2021/05/19 00:21:47;;;;;;;2.13;1.57;;;7.70;99.90;;;8.63;100.00;98132.22;5068133;28;20444;-80
2021/05/19 00:24:16;;;;;;;3.00;1.40;;;7.70;99.90;;;8.55;100.00;98135.69;5068304;28;20453;-80
2021/05/19 00:26:44;;;;;;;1.77;1.63;;;7.60;99.90;;;8.69;100.00;98141.94;5065311;28;20972;-80
2021/05/19 00:29:13;;;;;;;1.57;1.47;;;7.70;99.90;;;8.54;100.00;98141.88;5066634;28;20525;-80
2021/05/19 00:31:42;;;;;;;1.50;1.20;;;7.60;99.90;;;8.54;100.00;98141.88;5063727;28;20464;-80
2021/05/19 00:34:13;;;;;;;1.67;1.57;;;7.60;99.90;;;8.54;100.00;98144.47;5058828;28;20460;-80
2021/05/19 00:36:43;;;;;;;2.80;1.57;;;7.60;99.90;;;8.66;100.00;98131.06;5055797;28;20510;-80
2021/05/19 00:39:12;;;;;;;1.60;1.50;;;7.70;99.90;;;8.62;100.00;98135.00;5063347;28;20601;-80
2021/05/19 00:41:44;;;;;;;1.60;1.30;;;7.70;99.90;;;8.39;100.00;98135.78;5064636;28;20549;-80
2021/05/19 00:44:17;;;;;;;1.67;1.50;;;7.40;99.90;;;8.21;100.00;98131.75;5062311;28;20464;-79
2021/05/19 00:46:48;;;;;;;2.13;1.70;;;7.30;99.90;;;8.27;100.00;98133.69;5060218;28;20495;-79
2021/05/19 00:49:17;;;;;;;8.10;1.60;;;7.30;99.90;;;8.36;100.00;98132.72;5062595;28;20492;-80
2021/05/19 00:51:46;;;;;;;2.80;1.60;;;7.40;99.90;;;8.41;100.00;98133.81;5063281;28;20819;-80
2021/05/19 00:54:14;;;;;;;3.10;1.40;;;7.40;99.90;;;8.32;100.00;98131.41;5062537;28;20510;-80
2021/05/19 00:56:42;;;;;;;2.60;1.73;;;7.40;99.90;;;8.17;100.00;98130.47;5063775;28;20871;-80
2021/05/19 00:59:12;;;;;;;4.73;1.50;;;7.20;99.90;;;8.25;100.00;98131.25;5061181;28;20860;-80
2021/05/19 01:01:40;;;;;;;2.50;1.53;;;7.30;99.90;;;8.19;100.00;98124.09;5064421;28;20505;-80
2021/05/19 01:04:08;;;;;;;1.77;1.53;;;7.20;99.90;;;8.30;100.00;98126.38;5066962;28;20525;-80
2021/05/19 01:06:43;;;;;;;1.50;1.37;;;7.30;99.90;;;8.13;100.00;98124.78;5065256;28;20511;-80
2021/05/19 01:11:59;;;;;;;1.43;1.33;;;7.10;99.90;;;8.01;100.00;98132.19;5058915;28;20836;-80
2021/05/19 01:14:27;;;;;;;2.97;1.70;;;7.10;99.90;;;7.93;100.00;98133.97;5060089;28;20969;-80
2021/05/19 01:16:57;;;;;;;3.03;1.60;;;6.90;99.90;;;7.86;100.00;98130.44;5063723;28;20945;-80
2021/05/19 01:19:27;;;;;;;3.20;1.50;;;6.90;99.90;;;7.78;100.00;98127.84;5057447;28;20467;-80
2021/05/19 01:22:05;;;;;;;6.63;1.50;;;6.80;99.90;;;7.77;100.00;98129.66;5063968;28;20463;-80
2021/05/19 01:24:33;;;;;;;2.47;1.30;;;6.80;99.90;;;7.69;100.00;98136.66;5064429;28;20554;-80
2021/05/19 01:27:02;;;;;;;28.10;3.30;;;6.70;99.90;;;7.63;100.00;98138.16;5062723;28;20452;-79
2021/05/19 01:29:30;;;;;;;2.87;1.63;;;6.60;99.90;;;7.52;100.00;98134.09;5057878;28;20495;-80
2021/05/19 01:31:58;;;;;;;1.70;1.40;;;6.50;99.90;;;7.48;100.00;98127.59;5065024;28;20452;-80
2021/05/19 01:34:26;;;;;;;6.23;1.57;;;6.50;99.90;;;7.59;100.00;98134.25;5061778;28;20468;-80
2021/05/19 01:36:55;;;;;;;2.83;1.70;;;6.60;99.90;;;7.64;100.00;98123.31;5065247;28;20471;-80
2021/05/19 01:39:24;;;;;;;3.23;1.73;;;6.70;99.90;;;7.75;100.00;98118.59;5063307;28;20452;-80
2021/05/19 01:41:52;;;;;;;6.27;1.77;;;6.80;99.90;;;7.64;100.00;98131.13;5063526;28;20470;-80
2021/05/19 01:44:20;;;;;;;2.37;1.60;;;6.70;99.90;;;7.64;100.00;98133.72;5061239;28;20517;-80
2021/05/19 01:46:48;;;;;;;3.77;1.93;;;6.70;99.90;;;7.41;100.00;98136.22;5060541;28;20480;-80
2021/05/19 01:49:18;;;;;;;2.67;1.53;;;6.50;99.90;;;7.43;100.00;98132.47;5063918;28;20492;-80
2021/05/19 01:51:46;;;;;;;4.20;1.53;;;6.50;99.90;;;7.46;100.00;98141.75;5066148;28;20464;-80
2021/05/19 01:54:15;;;;;;;4.33;1.77;;;6.50;99.90;;;7.51;100.00;98129.06;5062784;28;20460;-80
2021/05/19 01:56:44;;;;;;;4.00;1.47;;;6.60;99.90;;;7.47;100.00;98133.78;5059037;28;20457;-80
2021/05/19 01:59:13;;;;;;;1.70;1.60;;;6.50;99.90;;;7.64;100.00;98133.72;5061872;28;20463;-80
2021/05/19 02:01:43;;;;;;;4.40;2.23;;;6.70;99.90;;;7.74;100.00;98123.97;5061847;28;20502;-80
2021/05/19 02:04:14;;;;;;;2.50;1.90;;;6.80;99.90;;;7.75;100.00;98129.00;5065222;28;20750;-80
2021/05/19 02:06:49;;;;;;;1.67;1.50;;;6.80;99.90;;;7.78;100.00;98140.84;5065653;28;20456;-80
2021/05/19 02:09:19;;;;;;;5.57;1.90;;;6.90;99.90;;;7.80;100.00;98134.53;5061108;28;20553;-80
2021/05/19 02:11:49;;;;;;;2.17;1.90;;;6.90;99.90;;;7.74;100.00;98134.38;5064363;28;20467;-80
2021/05/19 02:14:19;;;;;;;2.90;1.80;;;6.80;99.90;;;7.74;100.00;98129.97;5062628;28;20456;-79
2021/05/19 02:16:48;;;;;;;2.87;2.00;;;6.80;99.90;;;7.74;100.00;98134.38;5066480;28;20472;-80
2021/05/19 02:19:16;;;;;;;5.70;1.60;;;6.80;99.90;;;7.75;100.00;98143.78;5066347;28;20518;-80
2021/05/19 02:21:45;;;;;;;2.20;1.90;;;6.80;99.90;;;7.68;100.00;98148.03;5065364;28;20476;-80
2021/05/19 02:24:18;;;;;;;2.60;2.30;;;6.60;99.90;;;7.65;100.00;98144.00;5064385;28;20461;-80
2021/05/19 02:26:47;;;;;;;5.37;2.70;;;6.70;99.90;;;7.67;100.00;98143.84;5061853;28;20479;-79
2021/05/19 02:29:16;;;;;;;7.00;2.47;;;6.70;99.90;;;7.66;100.00;98148.22;5055812;28;20554;-80
2021/05/19 02:31:45;;;;;;;5.13;2.17;;;6.70;99.90;;;7.57;100.00;98144.81;5062122;28;20459;-80
2021/05/19 02:34:14;;;;;;;8.13;2.40;;;6.60;99.90;;;7.53;100.00;98155.72;5065625;28;20471;-80
2021/05/19 02:36:42;;;;;;;3.63;2.17;;;6.60;99.90;;;7.39;100.00;98154.59;5060455;28;20454;-80
2021/05/19 02:39:12;;;;;;;3.33;2.27;;;6.40;99.90;;;7.31;100.00;98152.00;5065612;28;20956;-80
2021/05/19 02:41:42;;;;;;;3.83;1.80;;;6.40;99.90;;;7.29;100.00;98151.34;5061016;28;20898;-80
2021/05/19 02:44:11;;;;;;;3.40;2.07;;;6.30;99.90;;;7.26;100.00;98161.25;5060037;28;20490;-80
2021/05/19 02:46:39;;;;;;;4.83;2.50;;;6.30;99.90;;;7.37;100.00;98156.56;5060440;28;20530;-80
2021/05/19 02:49:08;;;;;;;3.50;1.77;;;6.40;99.90;;;7.42;100.00;98154.28;5065003;28;20596;-80
2021/05/19 02:51:39;;;;;;;2.60;2.17;;;6.50;99.90;;;7.43;100.00;98163.69;5065833;28;20482;-80
2021/05/19 02:54:08;;;;;;;2.30;1.90;;;6.50;99.90;;;7.35;100.00;98150.72;5064357;28;20506;-80
2021/05/19 02:56:36;;;;;;;3.93;2.03;;;6.40;99.90;;;7.32;100.00;98156.25;5063840;28;20828;-80
2021/05/19 02:59:06;;;;;;;2.03;1.87;;;6.40;99.90;;;7.28;100.00;98157.53;5060597;28;20506;-80
2021/05/19 03:01:35;;;;;;;2.47;2.10;;;6.40;99.90;;;7.24;100.00;98153.63;5059201;28;20452;-80
2021/05/19 03:04:04;;;;;;;2.30;2.10;;;6.30;99.90;;;7.24;100.00;98158.03;5061233;28;20522;-80
2021/05/19 03:06:32;;;;;;;2.73;2.20;;;6.30;99.90;;;7.36;100.00;98161.91;5062139;28;20461;-80
2021/05/19 03:09:00;;;;;;;3.10;2.40;;;6.50;99.90;;;7.38;100.00;98166.00;5062494;28;20499;-80
2021/05/19 03:11:28;;;;;;;2.40;2.20;;;6.50;99.90;;;7.37;100.00;98171.34;5057371;28;20461;-80
2021/05/19 03:13:56;;;;;;;2.63;2.40;;;6.50;99.90;;;7.36;100.00;98174.91;5062362;28;20452;-80
2021/05/19 03:16:26;;;;;;;5.17;2.10;;;6.40;99.90;;;7.31;100.00;98172.81;5063066;28;20460;-80
2021/05/19 03:18:55;;;;;;;2.53;2.17;;;6.50;99.90;;;7.28;100.00;98172.34;5063420;28;20518;-80
2021/05/19 03:21:24;;;;;;;2.73;2.50;;;6.40;99.90;;;7.30;100.00;98173.78;5066437;28;20493;-80
2021/05/19 03:23:53;;;;;;;2.13;1.90;;;6.40;99.90;;;7.24;100.00;98179.66;5066830;28;21019;-80
2021/05/19 03:26:21;;;;;;;2.50;2.30;;;6.30;99.90;;;7.17;100.00;98178.66;5069514;28;20464;-80
2021/05/19 03:28:49;;;;;;;3.37;2.00;;;6.20;99.90;;;7.08;100.00;98184.81;5067805;28;20496;-80
2021/05/19 03:31:19;;;;;;;5.13;1.90;;;6.10;99.90;;;7.16;100.00;98178.81;5065726;28;20460;-79
2021/05/19 03:33:47;;;;;;;5.57;2.77;;;6.30;99.90;;;7.19;100.00;98179.31;5063388;28;21012;-80
2021/05/19 03:36:17;;;;;;;5.20;2.60;;;6.30;99.90;;;7.11;100.00;98184.53;5069679;28;20463;-80
2021/05/19 03:38:45;;;;;;;6.00;2.53;;;6.30;99.90;;;7.20;100.00;98182.72;5061078;28;20897;-80
2021/05/19 03:41:13;;;;;;;3.53;2.20;;;6.30;99.90;;;7.09;100.00;98181.25;5064917;28;20498;-80
2021/05/19 03:43:41;;;;;;;2.43;2.00;;;6.20;99.90;;;7.00;100.00;98177.03;5066855;28;20510;-80
2021/05/19 03:46:09;;;;;;;3.33;2.33;;;6.10;99.90;;;7.03;100.00;98176.69;5065132;28;20483;-80
2021/05/19 03:48:38;;;;;;;3.90;2.80;;;6.10;99.90;;;7.03;100.00;98184.50;5065927;28;20567;-80
2021/05/19 03:51:06;;;;;;;2.27;2.00;;;6.10;99.90;;;6.97;100.00;98170.38;5068973;28;21033;-80
2021/05/19 03:53:35;;;;;;;2.90;2.50;;;6.00;99.90;;;6.96;100.00;98180.91;5065205;28;20830;-80
2021/05/19 03:56:04;;;;;;;2.80;2.27;;;6.00;99.90;;;6.99;100.00;98178.81;5067930;28;20464;-80
2021/05/19 03:58:32;;;;;;;2.87;2.40;;;6.10;99.90;;;6.93;100.00;98176.03;5065164;28;20521;-80
2021/05/19 04:01:00;;;;;;;2.50;2.10;;;6.00;99.90;;;6.94;100.00;98182.88;5068011;28;20456;-80
2021/05/19 04:03:28;;;;;;;2.63;2.43;;;6.00;99.90;;;6.84;100.00;98188.19;5061132;28;20513;-84
2021/05/19 04:05:56;;;;;;;4.70;2.73;;;5.90;99.90;;;6.83;100.00;98181.41;5065824;28;20484;-80
2021/05/19 04:08:35;;;;;;;6.40;2.17;;;5.90;99.90;;;6.84;100.00;98182.19;5066065;28;20467;-80
2021/05/19 04:11:04;;;;;;;2.17;1.83;;;5.90;99.90;;;6.80;100.00;98180.91;5065956;28;20956;-80
2021/05/19 04:13:33;;;;;;;3.13;2.47;;;5.90;99.90;;;6.84;100.00;98184.78;5062550;28;20513;-80
2021/05/19 04:16:02;;;;;;;6.20;2.60;;;5.90;99.90;;;6.93;100.00;98191.66;5064423;28;20853;-80
2021/05/19 04:18:30;;;;;;;2.50;2.20;;;6.00;99.90;;;6.85;100.00;98184.63;5068113;28;20456;-81
2021/05/19 04:20:59;;;;;;;3.47;2.67;;;5.90;99.90;;;6.93;100.00;98191.66;5067545;28;20489;-80
2021/05/19 04:23:27;;;;;;;3.33;2.50;;;6.00;99.90;;;6.95;100.00;98195.69;5066743;28;20502;-79
2021/05/19 04:25:56;;;;;;;3.37;2.70;;;6.00;99.90;;;6.91;100.00;98194.38;5062877;28;20506;-79
2021/05/19 04:28:24;;;;;;;6.20;2.37;;;6.00;99.90;;;7.00;100.00;98200.44;5064107;28;20542;-80
2021/05/19 04:30:53;;;;;;;3.27;2.60;;;6.10;99.90;;;7.10;100.00;98206.28;5055940;28;20468;-79
2021/05/19 04:33:22;;;;;;;3.20;2.40;;;6.20;99.90;;;7.06;100.00;98205.78;5058010;28;20821;-80
2021/05/19 04:35:50;;;;;;;2.97;2.53;;;6.20;99.90;;;7.18;100.00;98211.50;5063767;28;20540;-79
2021/05/19 04:38:19;;;;;;;2.93;2.70;;;6.40;99.90;;;7.20;100.00;98214.75;5062919;28;20452;-80
2021/05/19 04:40:47;;;;;;;3.17;2.87;;;6.40;99.90;;;7.16;100.00;98208.22;5065436;28;20460;-80
2021/05/19 04:43:17;;;;;;;4.40;2.40;;;6.30;99.90;;;7.13;100.00;98212.94;5066614;28;20468;-80
2021/05/19 04:45:46;;;;;;;3.60;2.37;;;6.30;99.90;;;7.13;100.00;98216.38;5063816;28;20870;-80
2021/05/19 04:48:14;;;;;;;3.00;2.70;;;6.30;99.90;;;7.05;100.00;98222.34;5062481;28;20457;-80
2021/05/19 04:50:43;;;;;;;3.17;2.63;;;6.20;99.90;;;7.05;100.00;98221.53;5066977;28;20495;-80
2021/05/19 04:53:13;;;;;;;6.43;2.60;;;6.20;99.90;;;7.04;100.00;98212.13;5066878;28;20457;-80
2021/05/19 04:55:41;;;;;;;4.33;2.07;;;6.20;99.90;;;7.08;100.00;98226.41;5062326;28;20601;-79
2021/05/19 04:58:09;;;;;;;3.50;3.00;;;6.20;99.90;;;7.11;100.00;98233.09;5059273;28;20456;-80
2021/05/19 05:00:38;;;;;;;3.07;2.77;;;6.30;99.90;;;7.11;100.00;98235.72;5061708;28;20463;-80
2021/05/19 05:03:08;;;;;;;3.30;3.00;;;6.30;99.90;;;7.03;100.00;98239.09;5062502;28;20915;-80
2021/05/19 05:05:36;;;;;;;5.20;2.40;;;6.20;99.90;;;7.10;100.00;98237.50;5064418;28;20475;-79
2021/05/19 05:08:05;;;;;;;3.70;3.20;;;6.30;99.90;;;7.13;100.00;98242.38;5069477;28;20482;-80
2021/05/19 05:10:33;;;;;;;3.30;3.00;;;6.30;99.90;;;7.19;100.00;98241.72;5067320;28;20957;-80
2021/05/19 05:13:01;;;;;;;6.40;2.80;;;6.30;99.90;;;7.21;100.00;98234.59;5066670;28;20467;-80
2021/05/19 05:15:30;;;;;;;4.67;2.93;;;6.40;99.90;;;7.32;100.00;98239.47;5062680;28;20463;-80
2021/05/19 05:17:59;;;;;;;4.27;3.20;;;6.50;99.90;;;7.38;100.00;98238.00;5064828;28;20975;-79
2021/05/19 05:20:27;;;;;;;3.70;2.87;;;6.60;99.90;;;7.38;100.00;98235.41;5063451;28;20460;-80
2021/05/19 05:22:55;;;;;;;3.50;2.80;;;6.60;99.90;;;7.44;100.00;98234.75;5064861;28;20499;-80
2021/05/19 05:25:23;;;;;;;3.27;2.97;;;6.60;99.90;;;7.49;100.00;98230.69;5060482;28;20471;-80
2021/05/19 05:27:54;;;;;;;7.60;3.63;;;6.70;99.90;;;7.60;100.00;98240.75;5066240;28;20453;-79
2021/05/19 05:30:22;;;;;;;4.77;3.00;;;6.80;99.90;;;7.65;100.00;98237.66;5059735;28;20492;-80
2021/05/19 05:32:52;;;;;;;5.30;3.07;;;6.90;99.90;;;7.71;100.00;98234.41;5056358;28;20491;-80
2021/05/19 05:35:22;;;;;;;4.03;3.10;;;7.00;99.90;;;7.74;100.00;98238.50;5061943;28;20814;-80
2021/05/19 05:37:50;;;;;;;8.53;4.07;;;7.00;99.90;;;7.78;100.00;98237.16;5062579;28;20466;-80
2021/05/19 05:40:19;;;;;;;6.50;3.60;;;7.00;99.90;;;7.80;100.00;98238.66;5062665;28;20891;-80
2021/05/19 05:42:47;;;;;;;5.63;3.50;;;7.10;99.90;;;7.84;100.00;98236.53;5063985;28;20816;-80
2021/05/19 05:45:16;;;;;;;10.63;3.63;;;7.10;99.90;;;7.89;100.00;98242.84;5064385;28;20843;-80
2021/05/19 05:47:44;;;;;;;4.10;3.53;;;7.10;99.90;;;7.97;100.00;98239.44;5060500;28;20460;-80
2021/05/19 05:50:13;;;;;;;4.57;3.10;;;7.20;99.90;;;8.03;100.00;98243.97;5061009;28;20518;-80
2021/05/19 05:52:42;;;;;;;4.50;3.70;;;7.20;99.90;;;8.14;100.00;98251.44;5064721;28;20448;-80
2021/05/19 05:55:12;;;;;;;5.10;3.60;;;7.40;99.90;;;8.23;100.00;98240.00;5057881;28;20453;-80
2021/05/19 05:57:40;;;;;;;6.10;3.70;;;7.60;99.90;;;8.31;100.00;98241.81;5064088;28;20452;-80
2021/05/19 06:00:12;;;;;;;7.23;5.00;;;7.60;99.90;;;8.35;100.00;98243.09;5062650;28;20961;-80
2021/05/19 06:02:42;;;;;;;6.27;4.10;;;7.60;99.90;;;8.42;100.00;98239.66;5062110;28;20468;-80
2021/05/19 06:05:12;;;;;;;5.60;4.50;;;7.70;99.90;;;8.49;100.00;98245.81;5065360;28;20539;-80
2021/05/19 06:07:41;;;;;;;5.83;4.30;;;7.80;99.90;;;8.55;100.00;98239.94;5064633;28;20867;-80
2021/05/19 06:10:11;;;;;;;6.40;4.60;;;7.80;99.90;;;8.64;100.00;98243.34;5062568;28;20496;-80
2021/05/19 06:12:39;;;;;;;8.57;4.40;;;7.90;99.90;;;8.73;100.00;98241.47;5059654;28;20543;-80
2021/05/19 06:15:09;;;;;;;8.23;4.17;;;8.10;99.90;;;8.79;100.00;98235.56;5055348;28;20457;-80
2021/05/19 06:17:37;;;;;;;8.90;4.80;;;8.10;99.90;;;8.85;100.00;98245.34;5063301;28;20465;-80
2021/05/19 06:20:06;;;;;;;7.57;4.27;;;8.20;99.90;;;8.93;100.00;98240.06;5060892;28;20978;-80
2021/05/19 06:22:34;;;;;;;4.63;3.87;;;8.30;99.90;;;9.00;100.00;98238.41;5063081;28;20456;-80
2021/05/19 06:25:06;;;;;;;7.20;4.30;;;8.40;99.90;;;9.06;100.00;98238.50;5061335;28;20862;-81
2021/05/19 06:27:34;;;;;;;6.93;4.20;;;8.50;99.90;;;9.11;100.00;98238.00;5060982;28;20559;-80
2021/05/19 06:30:05;;;;;;;6.73;3.60;;;8.40;99.90;;;9.14;100.00;98229.84;5063003;28;21007;-80
2021/05/19 06:32:33;;;;;;;6.47;4.37;;;8.40;99.90;;;9.21;100.00;98229.94;5063621;28;20468;-80
2021/05/19 06:35:02;;;;;;;8.73;4.40;;;8.50;99.90;;;9.27;100.00;98240.50;5061189;28;20456;-80
2021/05/19 06:37:30;;;;;;;7.70;4.53;;;8.60;99.90;;;9.34;100.00;98238.81;5064099;28;20471;-80
2021/05/19 06:40:00;;;;;;;5.70;4.20;;;8.70;99.90;;;9.39;100.00;98233.91;5063108;28;20468;-80
2021/05/19 06:42:29;;;;;;;7.67;3.77;;;8.70;99.90;;;9.45;100.00;98238.41;5060811;28;20833;-80
2021/05/19 06:44:57;;;;;;;6.00;3.77;;;8.80;99.90;;;9.50;100.00;98230.88;5062242;28;20460;-80
2021/05/19 06:47:25;;;;;;;8.13;4.50;;;8.90;99.90;;;9.59;100.00;98231.63;5066488;28;20527;-80
2021/05/19 06:49:54;;;;;;;8.00;4.00;;;8.90;99.90;;;9.65;100.00;98237.94;5063184;28;20487;-80
2021/05/19 06:52:23;;;;;;;5.70;3.53;;;8.90;99.90;;;9.72;100.00;98238.88;5063269;28;20475;-80
2021/05/19 06:54:53;;;;;;;5.30;3.97;;;9.00;99.90;;;9.76;100.00;98240.13;5058016;28;20483;-80
2021/05/19 06:57:21;;;;;;;7.80;3.67;;;9.10;99.90;;;9.82;100.00;98236.81;5068543;28;21161;-80
2021/05/19 06:59:51;;;;;;;5.20;3.43;;;9.10;99.90;;;9.88;100.00;98233.47;5068572;28;20472;-80
2021/05/19 07:02:19;;;;;;;9.83;3.80;;;9.20;99.90;;;9.95;100.00;98239.63;5066255;28;20456;-80
2021/05/19 07:04:48;;;;;;;12.43;3.43;;;9.30;99.90;;;10.00;100.00;98237.28;5067039;28;21007;-80
2021/05/19 07:07:16;;;;;;;4.50;2.70;;;9.40;99.90;;;10.06;100.00;98249.66;5064183;28;20969;-80
2021/05/19 07:09:44;;;;;;;6.50;3.00;;;9.50;99.90;;;10.14;100.00;98244.34;5063751;28;20549;-80
2021/05/19 07:12:13;;;;;;;3.20;2.73;;;9.50;99.90;;;10.19;100.00;98239.41;5065223;28;20464;-80
2021/05/19 07:14:47;;;;;;;8.30;2.67;;;9.60;99.90;;;10.25;100.00;98243.91;5063399;28;20468;-80
2021/05/19 07:17:16;;;;;;;3.73;2.67;;;9.60;99.90;;;10.36;100.00;98243.47;5067718;28;20505;-80
2021/05/19 07:19:44;;;;;;;3.17;2.30;;;9.70;99.90;;;10.42;100.00;98236.69;5066912;28;20456;-80
2021/05/19 07:22:12;;;;;;;4.00;2.37;;;9.80;99.90;;;10.49;100.00;98248.88;5067417;28;20460;-80
2021/05/19 07:24:40;;;;;;;4.13;2.00;;;9.80;99.90;;;10.58;100.00;98239.94;5065578;28;20505;-80
2021/05/19 07:27:09;;;;;;;2.83;1.90;;;9.90;99.90;;;10.66;100.00;98248.66;5064374;28;20843;-80
2021/05/19 07:29:37;;;;;;;4.83;1.90;;;10.00;99.90;;;10.73;100.00;98246.94;5065146;28;20492;-80
2021/05/19 07:32:06;;;;;;;5.00;1.90;;;10.10;99.90;;;10.78;100.00;98247.22;5061960;28;20555;-80
2021/05/19 07:34:35;;;;;;;2.33;1.80;;;10.20;99.90;;;10.81;100.00;98246.84;5066140;28;20872;-80
2021/05/19 07:37:03;;;;;;;7.87;2.20;;;10.20;99.90;;;10.85;100.00;98255.94;5064782;28;20492;-80
2021/05/19 07:39:31;;;;;;;20.40;8.37;;;10.30;99.90;;;10.90;100.00;98241.31;5066286;28;20460;-82
2021/05/19 07:41:59;;;;;;;6.40;4.07;;;10.30;99.90;;;10.97;100.00;98244.00;5059468;28;20475;-79
2021/05/19 07:44:27;;;;;;;6.40;2.57;;;10.40;99.90;;;11.04;100.00;98242.25;5062970;28;20468;-79
2021/05/19 07:46:54;;;;;;;3.43;1.77;;;10.50;99.90;;;11.13;100.00;98241.19;5061988;28;20641;-79
2021/05/19 07:49:21;;;;;;;64.03;30.50;;;10.60;99.90;;;11.19;100.00;98253.50;5066061;28;20460;-79
2021/05/19 07:51:48;;;;;;;4.00;2.23;;;10.70;99.90;;;11.24;100.00;98253.78;5066547;28;20468;-80
2021/05/19 07:54:23;;;;;;;5.80;2.20;;;10.60;99.90;;;11.31;100.00;98251.22;5067377;28;20915;-80
2021/05/19 07:56:54;;;;;;;7.30;2.60;;;10.70;99.90;;;11.38;100.00;98257.34;5069192;28;20455;-80
2021/05/19 07:59:23;;;;;;;11.20;2.03;;;10.80;99.90;;;11.42;100.00;98254.13;5067125;28;20811;-80
2021/05/19 08:04:39;;;;;;;1.47;1.30;;;10.90;99.90;;;11.50;100.00;98263.69;5060128;28;20448;-80
2021/05/19 08:07:08;;;;;;;10.93;1.57;;;10.90;99.90;;;11.58;100.00;98267.00;5065372;28;20540;-80
2021/05/19 08:09:35;;;;;;;6.00;1.60;;;11.10;99.90;;;11.61;100.00;98258.75;5066109;28;20479;-80
2021/05/19 08:12:02;;;;;;;2.67;1.20;;;11.10;99.90;;;11.66;99.97;98260.81;5068668;28;20456;-80
2021/05/19 08:14:30;;;;;;;3.77;1.40;;;11.20;99.90;;;11.71;95.45;98260.28;5068690;28;20940;-79
2021/05/19 08:16:57;;;;;;;5.10;1.43;;;11.20;99.90;;;11.79;93.66;98260.16;5068882;28;20981;-80
2021/05/19 08:19:25;;;;;;;6.70;2.90;;;11.30;99.90;;;11.86;92.13;98248.72;5063651;28;20887;-80
2021/05/19 08:21:53;;;;;;;4.50;2.13;;;11.40;99.90;;;11.95;93.20;98250.19;5063057;28;20831;-80
2021/05/19 08:24:22;;;;;;;6.97;1.63;;;11.40;99.90;;;12.04;94.16;98245.63;5066040;28;20917;-80
2021/05/19 08:26:50;;;;;;;3.80;1.53;;;11.50;99.90;;;12.21;94.68;98246.16;5060620;28;20449;-80
2021/05/19 08:29:18;;;;;;;4.17;1.40;;;11.70;99.90;;;12.32;93.22;98249.03;5061762;28;20438;-80
2021/05/19 08:31:46;;;;;;;5.10;1.40;;;11.90;99.90;;;12.37;93.63;98251.88;5067512;28;20476;-80
2021/05/19 08:34:14;;;;;;;2.07;1.27;;;11.90;99.90;;;12.43;89.33;98247.66;5067832;28;20437;-81
2021/05/19 08:36:42;;;;;;;6.20;1.10;;;11.90;99.90;;;12.49;89.36;98241.66;5067777;28;20444;-81
2021/05/19 08:39:14;;;;;;;5.20;1.50;;;12.00;99.90;;;12.54;90.41;98242.69;5067994;28;20925;-79
2021/05/19 08:41:47;;;;;;;16.27;1.63;;;12.10;99.90;;;12.55;87.95;98243.50;5067985;28;21122;-80
2021/05/19 08:44:19;;;;;;;11.87;1.70;;;12.00;99.90;;;12.61;88.89;98243.53;5068182;28;20456;-80
2021/05/19 08:46:50;;;;;;;2.40;1.10;;;12.10;99.90;;;12.69;87.58;98242.56;5066794;28;20491;-81
2021/05/19 08:49:18;;;;;;;2.03;1.33;;;12.20;99.90;;;12.76;88.17;98234.72;5067994;28;20445;-80
2021/05/19 08:51:46;;;;;;;5.57;1.53;;;12.30;99.90;;;12.75;86.75;98239.16;5063697;28;20614;-82
2021/05/19 08:54:16;;;;;;;4.03;2.00;;;12.20;99.90;;;12.77;88.33;98239.78;5060472;28;20464;-79
2021/05/19 08:56:47;;;;;;;3.20;1.40;;;12.10;99.90;;;12.78;87.14;98238.75;5063094;28;20471;-80
2021/05/19 08:59:16;;;;;;;5.40;1.30;;;12.10;99.90;;;12.86;88.29;98230.72;5067479;28;20945;-79
2021/05/19 09:01:47;;;;;;;3.33;1.47;;;12.30;99.90;;;12.86;85.98;98240.41;5066329;28;20494;-80
2021/05/19 09:04:19;;;;;;;4.53;1.47;;;12.20;99.90;;;12.91;88.44;98233.56;5061735;28;20451;-79
2021/05/19 09:06:53;;;;;;;8.93;1.80;;;12.30;99.90;;;12.92;91.49;98232.56;5066700;28;20459;-79
2021/05/19 09:09:24;;;;;;;3.57;1.43;;;12.30;99.90;;;12.99;91.99;98235.19;5064758;28;20900;-79
2021/05/19 09:12:08;;;;;;;3.80;1.87;;;12.40;99.90;;;13.03;86.26;98233.81;5064456;28;20518;-79
2021/05/19 09:14:38;;;;;;;1.77;1.27;;;12.50;99.90;;;13.04;85.80;98223.13;5066174;28;20932;-79
2021/05/19 09:17:21;;;;;;;6.23;1.60;;;12.60;99.90;;;13.09;86.00;98219.91;5067222;28;20448;-79
2021/05/19 09:19:52;;;;;;;5.93;2.23;;;12.60;99.90;;;13.08;91.32;98224.31;5066345;28;20463;-79
2021/05/19 09:22:25;;;;;;;7.27;1.77;;;12.50;99.90;;;13.15;92.21;98219.13;5067374;28;20433;-79
2021/05/19 09:24:54;;;;;;;3.63;1.50;;;12.50;99.90;;;13.22;92.95;98217.34;5066870;28;20493;-79
2021/05/19 09:27:23;;;;;;;3.20;1.80;;;12.60;99.90;;;13.24;92.83;98207.44;5065725;28;21042;-78
2021/05/19 09:29:53;;;;;;;8.10;1.97;;;12.60;99.90;;;13.34;93.38;98207.03;5061585;28;20456;-79
2021/05/19 09:32:21;;;;;;;5.50;1.73;;;12.70;99.90;;;13.38;91.19;98208.25;5062807;28;20821;-78
2021/05/19 09:34:53;;;;;;;3.07;1.50;;;12.80;99.90;;;13.37;89.02;98199.56;5062286;28;20865;-79
2021/05/19 09:37:25;;;;;;;2.57;1.20;;;12.70;99.90;;;13.47;87.11;98204.41;5059567;28;20495;-78
2021/05/19 09:39:57;;;;;;;3.07;1.50;;;12.90;99.90;;;13.50;81.82;98201.41;5066110;28;20491;-78
2021/05/19 09:42:43;;;;;;;103.97;52.27;;;12.90;99.90;;;13.57;81.94;98192.50;5063396;28;20464;-78
2021/05/19 09:45:21;;;;;;;6.03;1.57;;;13.00;99.90;;;13.69;83.28;98194.50;5060421;28;21019;-78
2021/05/19 09:47:52;;;;;;;8.20;1.60;;;13.10;99.90;;;13.77;82.38;98196.94;5063624;28;20464;-78
2021/05/19 09:50:23;;;;;;;4.37;1.47;;;13.20;99.90;;;13.73;77.03;98193.09;5060929;28;20492;-78
2021/05/19 09:53:07;;;;;;;7.53;1.77;;;13.10;99.40;;;13.78;77.69;98185.44;5061591;28;20452;-78
2021/05/19 09:55:37;;;;;;;3.57;1.40;;;13.20;99.80;;;13.86;78.69;98186.00;5064978;28;20456;-78
2021/05/19 09:58:07;;;;;;;9.50;1.67;;;13.30;99.90;;;13.90;78.34;98192.47;5062498;28;20460;-79
2021/05/19 10:00:36;;;;;;;5.60;1.60;;;13.30;99.90;;;13.88;75.30;98188.44;5062706;28;20517;-79
2021/05/19 10:03:07;;;;;;;4.47;1.70;;;13.30;98.80;;;13.96;77.32;98196.09;5066554;28;20457;-78
2021/05/19 10:05:40;;;;;;;3.43;1.40;;;13.40;99.80;;;14.00;76.39;98189.44;5065629;28;20516;-78
2021/05/19 10:08:08;;;;;;;6.87;1.77;;;13.40;99.20;;;13.95;75.79;98191.88;5062044;28;20459;-78
2021/05/19 10:10:38;;;;;;;2.80;1.60;;;13.30;99.50;;;14.03;75.85;98183.75;5065281;28;20885;-78
2021/05/19 10:13:08;;;;;;;2.60;1.00;;;13.50;99.00;;;14.10;76.67;98177.47;5062371;28;20460;-79
2021/05/19 10:15:38;;;;;;;6.23;1.40;;;13.50;99.50;;;14.18;76.78;98183.53;5062256;28;20871;-78
2021/05/19 10:18:15;;;;;;;2.70;1.20;;;13.60;99.30;;;14.19;75.39;98185.97;5060012;28;20883;-78
2021/05/19 10:20:52;;;;;;;5.23;1.40;;;13.60;98.80;;;14.26;75.79;98170.97;5060344;28;20457;-78
2021/05/19 10:23:35;;;;;;;3.10;1.30;;;13.70;99.30;;;14.36;77.85;98179.25;5061439;28;20500;-78
2021/05/19 10:26:11;;;;;;;4.70;2.10;;;13.80;99.80;;;14.32;77.26;98172.75;5059223;28;20826;-78
2021/05/19 10:28:45;;;;;;;1.87;1.10;;;13.70;99.20;;;14.34;76.84;98175.19;5061327;28;20464;-78
2021/05/19 10:31:25;;;;;;;6.00;1.73;;;13.80;99.20;;;14.26;75.42;98167.53;5064744;28;20495;-78
2021/05/19 10:33:55;;;;;;;3.47;1.27;;;13.70;98.80;;;14.30;78.57;98164.25;5065309;28;20455;-78
2021/05/19 10:36:42;;;;;;;5.47;1.70;;;13.70;99.70;;;14.33;77.71;98157.78;5067933;28;20445;-78
2021/05/19 10:39:26;;;;;;;4.27;1.57;;;13.70;99.50;;;14.38;78.75;98150.91;5067671;28;20463;-81